X  Close Metar Aviation Weather Data     EHKD De Kooy Airport
Temperature
19°C Temperature
17°C Dewpoint
88% Humidity



Wind
4 M/S
8 MPH
13 KM/H
7 KTS



90°
E
Current Conditions

Partly Cloudy Partly Cloudy
Pressure 1019.98 (hPa) - 30.12 (inHg)
Visibility 6 (mile) - 9.7 (km)
Airport
Airport-code EHKD

Location: De Kooy Airport
Distance: 34 (km)

Metar:
EHKD 190225Z AUTO 09007KT 9999 FEW015CB 19/17 Q1020 BLU

Time: 19-07-2024 04:25 CEST